Time;durP1;ratioP1;P1;durP2;ratioP2;P2;SDS_P1;SDS_P2;PMS_P1;PMS_P2;Temp;Humidity;BMP_temperature;BMP_pressure;BME280_temperature;BME280_humidity;BME280_pressure;Samples;Min_cycle;Max_cycle;Signal;HPM_P1;HPM_P2
2022/09/19 00:01:21;;;;;;;1.80;1.07;;;10.80;99.90;;;;;;5073034;28;20273;-66
2022/09/19 00:03:56;;;;;;;1.10;1.00;;;10.80;99.90;;;;;;5060514;28;20289;-67
2022/09/19 00:06:26;;;;;;;1.10;1.10;;;10.80;99.90;;;;;;5052802;28;20585;-66
2022/09/19 00:08:54;;;;;;;3.80;1.13;;;10.80;99.90;;;;;;5052629;28;20212;-67
2022/09/19 00:11:22;;;;;;;1.00;1.00;;;10.80;99.90;;;;;;5052850;28;20288;-66
2022/09/19 00:13:50;;;;;;;1.17;1.00;;;10.80;99.90;;;;;;5053069;28;20212;-66
2022/09/19 00:16:20;;;;;;;1.00;1.00;;;10.80;99.90;;;;;;5053332;28;20407;-67
2022/09/19 00:18:49;;;;;;;1.80;1.00;;;10.80;99.90;;;;;;5052298;28;20695;-67
2022/09/19 00:21:20;;;;;;;1.00;1.00;;;10.70;99.90;;;;;;5052160;28;20236;-67
2022/09/19 00:26:32;;;;;;;1.40;1.00;;;10.80;99.90;;;;;;5051948;28;20189;-68
2022/09/19 00:28:58;;;;;;;1.70;1.10;;;10.70;99.90;;;;;;5051444;28;20296;-66
2022/09/19 00:31:25;;;;;;;1.00;1.00;;;10.80;99.90;;;;;;5070948;28;20201;-67
2022/09/19 00:33:55;;;;;;;1.57;1.10;;;10.80;99.90;;;;;;5072290;28;20298;-67
2022/09/19 00:36:22;;;;;;;1.10;1.10;;;10.80;99.90;;;;;;5072073;28;20201;-68
2022/09/19 00:38:49;;;;;;;1.30;1.20;;;10.70;99.90;;;;;;5072397;28;20295;-68
2022/09/19 00:41:18;;;;;;;1.50;1.20;;;10.70;99.90;;;;;;5071915;28;20642;-67
2022/09/19 00:43:51;;;;;;;1.23;1.20;;;10.70;99.90;;;;;;5071667;28;20291;-67
2022/09/19 00:46:19;;;;;;;1.40;1.30;;;10.80;99.90;;;;;;5071206;28;20188;-67
2022/09/19 00:48:49;;;;;;;1.50;1.40;;;10.80;99.90;;;;;;5072112;28;20661;-67
2022/09/19 00:51:23;;;;;;;1.50;1.40;;;10.80;99.90;;;;;;5072024;28;20666;-67
2022/09/19 00:53:51;;;;;;;1.70;1.60;;;10.80;99.90;;;;;;5072162;28;20276;-68
2022/09/19 00:56:19;;;;;;;1.93;1.67;;;10.80;99.90;;;;;;5071467;28;20301;-66
2022/09/19 00:58:47;;;;;;;2.93;1.80;;;10.80;99.90;;;;;;5071893;28;20204;-68
2022/09/19 01:01:16;;;;;;;2.07;1.80;;;10.80;99.90;;;;;;5071492;28;20319;-68
2022/09/19 01:03:45;;;;;;;2.60;1.90;;;10.80;99.90;;;;;;5061313;28;20312;-68
2022/09/19 01:06:25;;;;;;;3.20;2.13;;;10.80;99.90;;;;;;5051839;28;20212;-67
2022/09/19 01:09:08;;;;;;;2.80;1.90;;;10.80;99.90;;;;;;5051866;28;20550;-67
2022/09/19 01:11:56;;;;;;;2.00;1.90;;;10.80;99.90;;;;;;5051495;28;20192;-68
2022/09/19 01:14:37;;;;;;;4.40;2.30;;;10.90;99.90;;;;;;5051251;28;20205;-67
2022/09/19 01:17:11;;;;;;;4.93;2.03;;;10.90;99.90;;;;;;5051485;28;20197;-68
2022/09/19 01:20:08;;;;;;;2.63;2.30;;;10.90;99.90;;;;;;5051384;28;20243;-67
2022/09/19 01:22:56;;;;;;;5.07;2.50;;;10.90;99.90;;;;;;5031051;28;20320;-67
2022/09/19 01:25:31;;;;;;;2.90;2.60;;;11.00;99.90;;;;;;5031506;28;20357;-66
2022/09/19 01:28:11;;;;;;;3.43;2.60;;;11.00;99.90;;;;;;5031728;28;20191;-67
2022/09/19 01:30:42;;;;;;;3.70;2.50;;;11.00;99.90;;;;;;5031086;28;20271;-67
2022/09/19 01:33:17;;;;;;;2.70;2.50;;;11.00;99.90;;;;;;5031534;28;20201;-67
2022/09/19 01:35:46;;;;;;;2.80;2.60;;;11.10;99.90;;;;;;5031636;28;20596;-68
2022/09/19 01:38:17;;;;;;;5.70;3.13;;;11.10;99.90;;;;;;5041510;28;20659;-67
2022/09/19 01:40:45;;;;;;;3.73;3.20;;;11.10;99.90;;;;;;5052551;28;20276;-68
2022/09/19 01:43:16;;;;;;;4.47;3.17;;;11.10;99.90;;;;;;5054841;28;20225;-68
2022/09/19 01:45:44;;;;;;;3.83;3.10;;;11.10;99.90;;;;;;5055380;28;20273;-68
2022/09/19 01:48:19;;;;;;;3.77;3.37;;;11.10;99.90;;;;;;5055216;28;20209;-68
2022/09/19 01:51:11;;;;;;;4.07;3.10;;;11.20;99.90;;;;;;5055106;28;20280;-67
2022/09/19 01:54:02;;;;;;;4.67;3.23;;;11.20;99.90;;;;;;5055161;28;20189;-68
2022/09/19 01:56:39;;;;;;;4.43;3.27;;;11.30;99.90;;;;;;5055538;28;20997;-67
2022/09/19 01:59:21;;;;;;;2.40;2.20;;;11.20;99.90;;;;;;5055042;28;20193;-68
2022/09/19 02:01:51;;;;;;;2.20;2.00;;;11.20;99.90;;;;;;5055245;28;20571;-68
2022/09/19 02:04:22;;;;;;;1.90;1.80;;;11.20;99.90;;;;;;5070673;28;20275;-68
2022/09/19 02:06:53;;;;;;;1.87;1.50;;;11.10;99.90;;;;;;5074865;28;20235;-69
2022/09/19 02:09:26;;;;;;;1.87;1.67;;;11.10;99.90;;;;;;5074510;28;20197;-68
2022/09/19 02:11:54;;;;;;;3.63;2.10;;;11.10;99.90;;;;;;5074166;28;20296;-67
2022/09/19 02:14:27;;;;;;;2.77;2.20;;;11.20;99.90;;;;;;5074286;28;20295;-67
2022/09/19 02:17:03;;;;;;;2.90;2.33;;;11.20;99.90;;;;;;5074961;28;20236;-66
2022/09/19 02:19:34;;;;;;;2.60;2.40;;;11.20;99.90;;;;;;5074287;28;20279;-68
2022/09/19 02:22:04;;;;;;;4.43;2.80;;;11.20;99.90;;;;;;5074693;28;20296;-68
2022/09/19 02:24:36;;;;;;;3.50;2.33;;;11.30;99.90;;;;;;5074686;28;20299;-66
2022/09/19 02:27:07;;;;;;;2.73;2.20;;;11.20;99.90;;;;;;5074414;28;20189;-68
2022/09/19 02:29:39;;;;;;;3.67;2.60;;;11.20;99.90;;;;;;5073564;28;20647;-67
2022/09/19 02:32:07;;;;;;;2.77;2.40;;;11.30;99.90;;;;;;5074204;28;20284;-68
2022/09/19 02:34:34;;;;;;;3.27;2.60;;;11.30;99.90;;;;;;5074606;28;20613;-67
2022/09/19 02:37:05;;;;;;;3.00;2.70;;;11.30;99.90;;;;;;5074422;28;20211;-67
2022/09/19 02:39:36;;;;;;;3.90;2.80;;;11.30;99.90;;;;;;5074473;28;20211;-68
2022/09/19 02:42:09;;;;;;;3.10;2.80;;;11.30;99.90;;;;;;5074193;28;20233;-67
2022/09/19 02:44:49;;;;;;;3.63;3.10;;;11.30;99.90;;;;;;5074373;28;20198;-67
2022/09/19 02:47:21;;;;;;;3.33;3.03;;;11.30;99.90;;;;;;5073284;28;20204;-68
2022/09/19 02:49:52;;;;;;;3.50;3.20;;;11.30;99.90;;;;;;5074226;28;20193;-67
2022/09/19 02:52:24;;;;;;;3.67;3.30;;;11.30;99.90;;;;;;5073578;28;20627;-67
2022/09/19 02:54:55;;;;;;;4.10;3.60;;;11.30;99.90;;;;;;5074045;28;20281;-67
2022/09/19 02:57:25;;;;;;;5.40;3.80;;;11.30;99.90;;;;;;5073604;28;20300;-68
2022/09/19 02:59:58;;;;;;;5.53;3.87;;;11.30;99.90;;;;;;5073892;28;20303;-67
2022/09/19 03:02:28;;;;;;;6.53;4.00;;;11.30;99.90;;;;;;5072375;28;20328;-67
2022/09/19 03:04:58;;;;;;;4.63;3.97;;;11.30;99.90;;;;;;5054305;28;20208;-68
2022/09/19 03:07:29;;;;;;;5.27;4.23;;;11.20;99.90;;;;;;5053715;28;20194;-67
2022/09/19 03:10:03;;;;;;;5.07;4.10;;;11.20;99.90;;;;;;5054050;28;20280;-67
2022/09/19 03:12:37;;;;;;;4.73;3.53;;;11.20;99.90;;;;;;5053827;28;20280;-67
2022/09/19 03:15:08;;;;;;;5.80;4.27;;;11.20;99.90;;;;;;5053377;28;20285;-67
2022/09/19 03:17:41;;;;;;;5.20;4.10;;;11.20;99.90;;;;;;5053892;28;20731;-67
2022/09/19 03:20:11;;;;;;;4.60;4.03;;;11.20;99.90;;;;;;5062036;28;20208;-68
2022/09/19 03:22:39;;;;;;;5.93;4.10;;;11.20;99.90;;;;;;5074144;28;20256;-66
2022/09/19 03:25:07;;;;;;;5.90;4.17;;;11.20;99.90;;;;;;5073380;28;20212;-67
2022/09/19 03:27:36;;;;;;;7.20;3.97;;;11.20;99.90;;;;;;5073590;28;20240;-67
2022/09/19 03:30:07;;;;;;;6.33;4.17;;;11.20;99.90;;;;;;5072897;28;20232;-67
2022/09/19 03:32:35;;;;;;;6.63;4.37;;;11.30;99.90;;;;;;5073552;28;20295;-66
2022/09/19 03:35:02;;;;;;;5.80;4.30;;;11.20;99.90;;;;;;5073123;28;20204;-67
2022/09/19 03:37:29;;;;;;;7.50;4.47;;;11.20;99.90;;;;;;5072256;28;20208;-68
2022/09/19 03:39:56;;;;;;;4.83;4.27;;;11.20;99.90;;;;;;5073326;28;20746;-70
2022/09/19 03:42:24;;;;;;;5.23;4.10;;;11.20;99.90;;;;;;5073312;28;20661;-70
2022/09/19 03:44:51;;;;;;;4.50;3.83;;;11.20;99.90;;;;;;5073198;28;20215;-69
2022/09/19 03:47:21;;;;;;;5.80;4.10;;;11.20;99.90;;;;;;5072841;28;20211;-69
2022/09/19 03:49:49;;;;;;;6.43;3.77;;;11.30;99.90;;;;;;5073584;28;20689;-68
2022/09/19 03:52:16;;;;;;;5.27;3.93;;;11.30;99.90;;;;;;5072835;28;20216;-71
2022/09/19 03:54:44;;;;;;;6.17;4.00;;;11.30;99.90;;;;;;5072056;28;20319;-68
2022/09/19 03:57:11;;;;;;;4.50;3.93;;;11.30;99.90;;;;;;5072899;28;20634;-67
2022/09/19 03:59:39;;;;;;;6.57;3.80;;;11.30;99.90;;;;;;5072982;28;20637;-68
2022/09/19 04:02:06;;;;;;;5.17;4.03;;;11.30;99.90;;;;;;5072522;28;20667;-68
2022/09/19 04:04:35;;;;;;;4.73;4.20;;;11.30;99.90;;;;;;5053874;28;20575;-67
2022/09/19 04:07:02;;;;;;;5.07;3.80;;;11.30;99.90;;;;;;5052374;28;20197;-68
2022/09/19 04:09:29;;;;;;;4.77;3.87;;;11.30;99.90;;;;;;5052252;28;20206;-69
2022/09/19 04:11:56;;;;;;;7.83;4.53;;;11.30;99.90;;;;;;5051619;28;20292;-66
2022/09/19 04:14:23;;;;;;;5.77;4.23;;;11.30;99.90;;;;;;5052499;28;20225;-67
2022/09/19 04:16:51;;;;;;;6.20;4.00;;;11.30;99.90;;;;;;5052357;28;20296;-68
2022/09/19 04:19:18;;;;;;;5.60;4.17;;;11.40;99.90;;;;;;5051997;28;20221;-68
2022/09/19 04:21:46;;;;;;;6.83;4.10;;;11.40;99.90;;;;;;5052100;28;20336;-68
2022/09/19 04:24:14;;;;;;;6.47;5.00;;;11.40;99.90;;;;;;5051963;28;20212;-68
2022/09/19 04:26:43;;;;;;;7.03;4.47;;;11.40;99.90;;;;;;5052216;28;20205;-68
2022/09/19 04:29:10;;;;;;;5.83;4.20;;;11.40;99.90;;;;;;5052266;28;20233;-69
2022/09/19 04:31:39;;;;;;;4.20;3.77;;;11.40;99.90;;;;;;5052017;28;20720;-69
2022/09/19 04:34:06;;;;;;;5.20;4.20;;;11.40;99.90;;;;;;5052053;28;20259;-69
2022/09/19 04:36:33;;;;;;;4.50;4.10;;;11.40;99.90;;;;;;5052307;28;20216;-69
2022/09/19 04:39:02;;;;;;;6.97;4.00;;;11.50;99.90;;;;;;5051496;28;20201;-69
2022/09/19 04:41:32;;;;;;;5.43;4.10;;;11.50;99.90;;;;;;5052256;28;20213;-68
2022/09/19 04:43:59;;;;;;;5.13;4.30;;;11.50;99.90;;;;;;5052140;28;20284;-69
2022/09/19 04:46:26;;;;;;;5.13;4.00;;;11.50;99.90;;;;;;5051895;28;20221;-71
2022/09/19 04:48:54;;;;;;;5.40;4.10;;;11.50;99.90;;;;;;5051693;28;20709;-70
2022/09/19 04:51:21;;;;;;;6.00;4.30;;;11.50;99.90;;;;;;5051465;28;20229;-70
2022/09/19 04:53:48;;;;;;;6.07;4.00;;;11.50;99.90;;;;;;5051555;28;20677;-69
2022/09/19 04:56:17;;;;;;;4.77;4.07;;;11.60;99.90;;;;;;5051811;28;20303;-70
2022/09/19 04:58:44;;;;;;;4.47;3.93;;;11.50;99.90;;;;;;5051760;28;20205;-68
2022/09/19 05:01:13;;;;;;;4.60;4.10;;;11.50;99.90;;;;;;5051705;28;20212;-68
2022/09/19 05:03:43;;;;;;;4.50;3.73;;;11.50;99.90;;;;;;5060381;28;20312;-69
2022/09/19 05:06:10;;;;;;;4.37;3.90;;;11.50;99.90;;;;;;5051703;28;20209;-68
2022/09/19 05:08:37;;;;;;;5.23;4.00;;;11.50;99.90;;;;;;5052159;28;20300;-69
2022/09/19 05:11:07;;;;;;;6.27;4.00;;;11.60;99.90;;;;;;5050977;28;20213;-67
2022/09/19 05:13:38;;;;;;;4.70;4.03;;;11.60;99.90;;;;;;5051516;28;20292;-67
2022/09/19 05:16:06;;;;;;;5.10;4.17;;;11.60;99.90;;;;;;5050851;28;20194;-67
2022/09/19 05:18:37;;;;;;;5.20;4.30;;;11.60;99.90;;;;;;5052121;28;20201;-68
2022/09/19 05:21:07;;;;;;;5.43;4.10;;;11.60;99.90;;;;;;5051005;28;20211;-66
2022/09/19 05:23:36;;;;;;;6.30;4.40;;;11.60;99.90;;;;;;5051576;28;20224;-67
2022/09/19 05:26:05;;;;;;;6.07;4.47;;;11.60;99.90;;;;;;5051095;28;20228;-67
2022/09/19 05:28:32;;;;;;;6.43;4.53;;;11.70;99.90;;;;;;5051265;28;20240;-68
2022/09/19 05:31:05;;;;;;;5.00;4.03;;;11.60;99.90;;;;;;5050794;28;20787;-71
2022/09/19 05:33:33;;;;;;;4.87;4.30;;;11.70;99.90;;;;;;5049710;28;20220;-68
2022/09/19 05:36:01;;;;;;;6.40;4.77;;;11.70;99.90;;;;;;5050158;28;20659;-70
2022/09/19 05:38:29;;;;;;;7.13;4.90;;;11.70;99.90;;;;;;5051051;28;20241;-66
2022/09/19 05:40:57;;;;;;;5.20;4.60;;;11.70;99.90;;;;;;5049867;28;20252;-67
2022/09/19 05:43:24;;;;;;;6.50;4.40;;;11.60;99.90;;;;;;5049980;28;20632;-66
2022/09/19 05:45:52;;;;;;;6.97;5.10;;;11.70;99.90;;;;;;5049976;28;20245;-68
2022/09/19 05:48:20;;;;;;;6.50;4.47;;;11.70;99.90;;;;;;5050547;28;20205;-68
2022/09/19 05:50:49;;;;;;;7.67;5.10;;;11.70;99.90;;;;;;5049410;28;20703;-67
2022/09/19 05:56:03;;;;;;;5.50;4.90;;;11.80;99.90;;;;;;5049195;28;20220;-69
2022/09/19 05:58:30;;;;;;;6.83;4.87;;;11.80;99.90;;;;;;5049706;28;20202;-70
2022/09/19 06:01:03;;;;;;;6.67;5.03;;;11.80;99.90;;;;;;5049677;28;20272;-69
2022/09/19 06:03:32;;;;;;;5.93;4.57;;;11.80;99.90;;;;;;5047639;28;20210;-66
2022/09/19 06:05:59;;;;;;;7.43;5.77;;;11.70;99.90;;;;;;5050141;28;20659;-68
2022/09/19 06:08:26;;;;;;;6.27;4.70;;;11.80;99.90;;;;;;5051248;28;20305;-68
2022/09/19 06:10:53;;;;;;;5.93;4.67;;;11.70;99.90;;;;;;5051086;28;20237;-66
2022/09/19 06:13:22;;;;;;;6.73;5.60;;;11.80;99.90;;;;;;5050847;28;20289;-67
2022/09/19 06:15:49;;;;;;;5.37;4.57;;;11.80;99.90;;;;;;5050508;28;20205;-67
2022/09/19 06:18:17;;;;;;;5.60;4.43;;;11.80;99.90;;;;;;5050764;28;20201;-68
2022/09/19 06:20:46;;;;;;;5.90;4.73;;;11.90;99.90;;;;;;5050843;28;20209;-68
2022/09/19 06:23:13;;;;;;;6.90;4.53;;;11.90;99.90;;;;;;5050601;28;20221;-67
2022/09/19 06:25:40;;;;;;;6.73;4.60;;;11.90;99.90;;;;;;5050995;28;20229;-67
2022/09/19 06:28:10;;;;;;;6.47;4.37;;;12.00;99.90;;;;;;5070992;28;20718;-68
2022/09/19 06:30:38;;;;;;;5.50;4.30;;;12.10;99.90;;;;;;5073931;28;20232;-68
2022/09/19 06:33:06;;;;;;;7.40;4.17;;;12.10;99.90;;;;;;5074624;28;20664;-66
2022/09/19 06:35:33;;;;;;;4.60;4.00;;;12.20;99.90;;;;;;5071547;28;20228;-68
2022/09/19 06:38:04;;;;;;;4.77;3.70;;;12.20;99.90;;;;;;5054519;28;20229;-69
2022/09/19 06:40:32;;;;;;;4.80;3.83;;;12.30;99.90;;;;;;5054092;28;20197;-69
2022/09/19 06:43:01;;;;;;;5.40;3.83;;;12.40;99.90;;;;;;5054273;28;20290;-69
2022/09/19 06:45:28;;;;;;;7.63;3.70;;;12.50;99.90;;;;;;5062384;28;20216;-68
2022/09/19 06:47:58;;;;;;;4.20;3.13;;;12.60;99.90;;;;;;5054411;28;20312;-69
2022/09/19 06:50:26;;;;;;;4.10;3.70;;;12.60;99.90;;;;;;5054597;28;20587;-68
2022/09/19 06:52:52;;;;;;;4.00;3.57;;;12.70;99.90;;;;;;5053836;28;20201;-67
2022/09/19 06:55:23;;;;;;;3.93;3.23;;;12.70;99.90;;;;;;5054251;28;20770;-69
2022/09/19 06:57:55;;;;;;;4.33;3.53;;;12.70;99.90;;;;;;5053941;28;20193;-69
2022/09/19 07:00:24;;;;;;;5.67;3.30;;;12.80;99.90;;;;;;5054692;28;20263;-68
2022/09/19 07:02:53;;;;;;;4.97;3.70;;;12.80;99.90;;;;;;5053634;28;20789;-68
2022/09/19 07:05:21;;;;;;;4.50;3.47;;;12.90;99.90;;;;;;5054006;28;20210;-68
2022/09/19 07:07:51;;;;;;;4.17;3.30;;;12.90;99.90;;;;;;5053431;28;20220;-68
2022/09/19 07:10:20;;;;;;;3.43;3.07;;;12.90;99.90;;;;;;5053939;28;20272;-66
2022/09/19 07:12:52;;;;;;;4.50;3.07;;;13.00;99.90;;;;;;5053723;28;20212;-68
2022/09/19 07:15:20;;;;;;;4.03;3.07;;;13.00;99.90;;;;;;5053755;28;20185;-67
2022/09/19 07:17:46;;;;;;;4.97;3.10;;;13.00;99.90;;;;;;5054042;28;20213;-67
2022/09/19 07:20:14;;;;;;;3.90;3.10;;;13.10;99.90;;;;;;5053801;28;20296;-67
2022/09/19 07:22:40;;;;;;;4.07;3.10;;;13.20;99.90;;;;;;5053371;28;20229;-66
2022/09/19 07:25:08;;;;;;;3.37;3.00;;;13.20;99.90;;;;;;5053734;28;20628;-69
2022/09/19 07:27:37;;;;;;;4.00;3.10;;;13.20;99.90;;;;;;5053303;28;20288;-68
2022/09/19 07:30:05;;;;;;;4.20;3.07;;;13.20;99.90;;;;;;5053449;28;20333;-67
2022/09/19 07:32:33;;;;;;;4.23;3.00;;;13.20;99.90;;;;;;5053368;28;20292;-68
2022/09/19 07:35:00;;;;;;;6.20;3.30;;;13.30;99.90;;;;;;5054042;28;20212;-66
2022/09/19 07:37:27;;;;;;;3.67;3.23;;;13.20;99.90;;;;;;5053537;28;20244;-68
2022/09/19 07:39:54;;;;;;;6.40;3.57;;;13.20;99.90;;;;;;5053698;28;20219;-68
2022/09/19 07:42:21;;;;;;;3.70;3.30;;;13.20;99.90;;;;;;5053487;28;20233;-66
2022/09/19 07:44:49;;;;;;;4.73;3.00;;;13.20;99.90;;;;;;5053270;28;20225;-69
2022/09/19 07:47:28;;;;;;;6.10;3.40;;;13.10;99.90;;;;;;5053040;28;20283;-68
2022/09/19 07:49:55;;;;;;;4.80;3.40;;;13.10;99.90;;;;;;5053037;28;20284;-70
2022/09/19 07:52:22;;;;;;;4.87;3.50;;;13.00;99.90;;;;;;5053163;28;20304;-69
2022/09/19 07:54:49;;;;;;;7.77;3.93;;;13.00;99.90;;;;;;5052885;28;20206;-68
2022/09/19 07:57:16;;;;;;;6.13;3.33;;;13.00;99.90;;;;;;5053014;28;20205;-70
2022/09/19 07:59:44;;;;;;;5.33;3.30;;;13.10;99.90;;;;;;5052653;28;20206;-68
2022/09/19 08:02:13;;;;;;;4.97;3.67;;;13.10;99.90;;;;;;5052805;28;20576;-67
2022/09/19 08:04:39;;;;;;;6.47;4.17;;;13.10;99.90;;;;;;5057199;28;20275;-65
2022/09/19 08:07:07;;;;;;;4.90;3.83;;;13.20;99.90;;;;;;5052833;28;20736;-66
2022/09/19 08:09:34;;;;;;;6.73;3.80;;;13.20;99.90;;;;;;5052863;28;20256;-68
2022/09/19 08:12:02;;;;;;;7.80;4.10;;;13.20;99.90;;;;;;5052233;28;20216;-68
2022/09/19 08:14:29;;;;;;;5.17;3.97;;;13.30;99.90;;;;;;5052648;28;20308;-68
2022/09/19 08:16:56;;;;;;;6.10;4.07;;;13.30;99.90;;;;;;5052681;28;20569;-68
2022/09/19 08:19:24;;;;;;;7.83;4.03;;;13.30;99.90;;;;;;5051947;28;20201;-69
2022/09/19 08:21:51;;;;;;;6.47;4.30;;;13.30;99.90;;;;;;5052206;28;20296;-67
2022/09/19 08:24:18;;;;;;;5.97;3.73;;;13.30;99.90;;;;;;5051854;28;20229;-68
2022/09/19 08:26:45;;;;;;;5.50;3.90;;;13.30;99.90;;;;;;5052750;28;20228;-67
2022/09/19 08:29:12;;;;;;;6.80;4.07;;;13.40;99.90;;;;;;5052174;28;20249;-68
2022/09/19 08:31:39;;;;;;;5.90;3.87;;;13.40;99.90;;;;;;5052091;28;20205;-68
2022/09/19 08:34:08;;;;;;;6.63;4.07;;;13.40;99.90;;;;;;5052002;28;20201;-66
2022/09/19 08:36:38;;;;;;;6.50;3.77;;;13.50;99.90;;;;;;5052075;28;20251;-67
2022/09/19 08:39:05;;;;;;;8.90;3.93;;;13.60;99.90;;;;;;5052264;28;20248;-67
2022/09/19 08:41:45;;;;;;;5.97;3.90;;;13.70;99.90;;;;;;5054693;28;20205;-68
2022/09/19 08:44:21;;;;;;;6.47;4.03;;;13.70;99.90;;;;;;5048085;28;20219;-66
2022/09/19 08:46:54;;;;;;;5.27;3.50;;;13.80;99.90;;;;;;5049769;28;20312;-68
2022/09/19 08:49:27;;;;;;;6.70;3.80;;;13.80;99.90;;;;;;5049100;28;20236;-67
2022/09/19 08:52:00;;;;;;;5.60;3.80;;;13.80;99.90;;;;;;5052184;28;20194;-66
2022/09/19 08:54:32;;;;;;;5.43;3.77;;;13.80;99.90;;;;;;5049663;28;20208;-69
2022/09/19 08:57:00;;;;;;;7.50;3.57;;;14.00;99.90;;;;;;5049503;28;20569;-68
2022/09/19 08:59:32;;;;;;;5.13;3.50;;;14.00;99.90;;;;;;5051330;28;20292;-68
2022/09/19 09:02:08;;;;;;;6.57;3.40;;;14.00;99.90;;;;;;5051550;28;20293;-67
2022/09/19 09:04:35;;;;;;;8.30;5.80;;;14.10;99.90;;;;;;5051297;28;20315;-67
2022/09/19 09:07:28;;;;;;;9.10;5.43;;;14.10;99.90;;;;;;5052106;28;20272;-68
2022/09/19 09:10:08;;;;;;;9.10;5.27;;;14.10;99.90;;;;;;5049455;28;20213;-68
2022/09/19 09:12:45;;;;;;;8.57;4.80;;;14.10;99.90;;;;;;5052220;28;20189;-68
2022/09/19 09:15:21;;;;;;;7.97;4.60;;;14.10;99.90;;;;;;5051782;28;20657;-67
2022/09/19 09:18:02;;;;;;;9.00;4.70;;;14.10;99.90;;;;;;5051798;28;20601;-67
2022/09/19 09:20:43;;;;;;;9.60;5.10;;;14.10;99.90;;;;;;5049585;28;20630;-70
2022/09/19 09:23:17;;;;;;;8.40;4.60;;;14.10;99.90;;;;;;5051068;28;20189;-69
2022/09/19 09:25:47;;;;;;;8.07;4.70;;;14.10;99.90;;;;;;5051502;28;20614;-67
2022/09/19 09:28:20;;;;;;;7.13;3.80;;;14.10;99.90;;;;;;5051244;28;20280;-68
2022/09/19 09:30:50;;;;;;;6.93;4.60;;;14.20;99.90;;;;;;5051198;28;20236;-68
2022/09/19 09:33:23;;;;;;;5.83;4.23;;;14.30;99.90;;;;;;5051862;28;20288;-66
2022/09/19 09:35:56;;;;;;;7.37;4.37;;;14.40;99.90;;;;;;5051975;28;20193;-68
2022/09/19 09:38:30;;;;;;;6.90;4.03;;;14.50;99.90;;;;;;5051765;28;20276;-67
2022/09/19 09:43:59;;;;;;;5.70;3.60;;;14.70;99.90;;;;;;5051571;28;20336;-69
2022/09/19 09:46:41;;;;;;;5.00;3.67;;;14.80;99.90;;;;;;5051831;28;20720;-67
2022/09/19 09:49:12;;;;;;;8.87;3.80;;;14.80;99.90;;;;;;5048854;28;20209;-68
2022/09/19 09:51:48;;;;;;;5.43;3.60;;;14.90;99.90;;;;;;5051310;28;20190;-69
2022/09/19 09:57:29;;;;;;;6.53;3.17;;;15.00;99.90;;;;;;5051531;28;20224;-66
2022/09/19 10:05:44;;;;;;;5.77;2.90;;;15.20;99.90;;;;;;5055772;28;20658;-67
2022/09/19 10:08:19;;;;;;;5.60;2.80;;;15.30;99.90;;;;;;5055242;28;20191;-68
2022/09/19 10:10:53;;;;;;;6.80;3.10;;;15.30;99.90;;;;;;5052796;28;20229;-69
2022/09/19 10:13:26;;;;;;;3.63;2.60;;;15.40;99.90;;;;;;5055144;28;20599;-70
2022/09/19 10:16:01;;;;;;;6.73;3.20;;;15.30;99.90;;;;;;5054974;28;20226;-69
2022/09/19 10:18:36;;;;;;;4.57;2.90;;;15.30;99.90;;;;;;5055164;28;20551;-68
2022/09/19 10:21:04;;;;;;;3.47;2.87;;;15.30;99.90;;;;;;5055193;28;20198;-67
2022/09/19 10:23:33;;;;;;;9.53;4.10;;;15.40;99.90;;;;;;5054448;28;20233;-68
2022/09/19 10:26:04;;;;;;;6.30;2.70;;;15.40;99.90;;;;;;5055287;28;20206;-69
2022/09/19 10:28:37;;;;;;;5.80;2.97;;;15.50;99.90;;;;;;5054650;28;20559;-68
2022/09/19 10:31:05;;;;;;;7.77;3.50;;;15.60;99.90;;;;;;5054326;28;20246;-68
2022/09/19 10:33:40;;;;;;;6.53;2.93;;;15.70;99.90;;;;;;5054210;28;20208;-67
2022/09/19 10:36:19;;;;;;;5.10;2.97;;;15.80;99.90;;;;;;5054592;28;20625;-67
2022/09/19 10:38:54;;;;;;;4.10;2.70;;;15.80;99.90;;;;;;5054466;28;20613;-67
2022/09/19 10:41:25;;;;;;;6.53;3.00;;;15.80;99.90;;;;;;5055100;28;20190;-67
2022/09/19 10:43:54;;;;;;;9.57;3.20;;;15.80;99.90;;;;;;5054207;28;20222;-66
2022/09/19 10:46:22;;;;;;;4.20;2.90;;;15.80;99.90;;;;;;5054258;28;20634;-67
2022/09/19 10:48:53;;;;;;;5.60;3.17;;;15.80;99.90;;;;;;5054094;28;20218;-68
2022/09/19 10:51:21;;;;;;;4.57;2.80;;;15.90;99.90;;;;;;5054281;28;20287;-68
2022/09/19 10:53:55;;;;;;;5.13;2.70;;;15.90;99.90;;;;;;5053875;28;20733;-66
2022/09/19 10:56:26;;;;;;;4.57;3.20;;;15.90;99.90;;;;;;5054180;28;20291;-68
2022/09/19 10:59:01;;;;;;;7.27;3.00;;;16.00;99.90;;;;;;5054765;28;20209;-66
2022/09/19 11:01:28;;;;;;;5.57;2.80;;;16.10;99.90;;;;;;5053863;28;20723;-67
2022/09/19 11:04:04;;;;;;;5.63;3.03;;;16.10;99.90;;;;;;5053914;28;20258;-71
2022/09/19 11:06:32;;;;;;;7.33;3.13;;;16.20;99.90;;;;;;5053608;28;20294;-67
2022/09/19 11:09:06;;;;;;;6.20;3.00;;;16.30;99.90;;;;;;5053465;28;20198;-67
2022/09/19 11:11:45;;;;;;;6.97;2.60;;;16.30;99.90;;;;;;5053346;28;20628;-67
2022/09/19 11:14:18;;;;;;;4.97;2.53;;;16.40;99.90;;;;;;5053423;28;20600;-68
2022/09/19 11:17:31;;;;;;;3.50;2.63;;;16.40;99.90;;;;;;5054553;28;20294;-69
2022/09/19 11:20:23;;;;;;;7.47;3.60;;;16.40;99.90;;;;;;5025769;28;20281;-68
2022/09/19 11:23:16;;;;;;;5.40;2.90;;;16.40;99.90;;;;;;5054042;28;20207;-66
2022/09/19 11:25:51;;;;;;;5.90;2.53;;;16.30;99.90;;;;;;5052721;28;20219;-68
2022/09/19 11:28:34;;;;;;;8.53;2.63;;;16.30;99.90;;;;;;5053825;28;20213;-68
2022/09/19 11:31:10;;;;;;;7.23;2.60;;;16.20;99.90;;;;;;5053329;28;20324;-67
2022/09/19 11:33:47;;;;;;;6.33;2.67;;;16.20;99.90;;;;;;5054316;28;20572;-67
2022/09/19 11:36:25;;;;;;;8.70;2.80;;;16.20;99.90;;;;;;5053268;28;20281;-67
2022/09/19 11:39:00;;;;;;;6.43;2.63;;;16.20;99.90;;;;;;5033471;28;20190;-67
2022/09/19 11:41:37;;;;;;;6.73;2.60;;;16.20;99.90;;;;;;5050448;28;20189;-67
2022/09/19 11:44:39;;;;;;;3.47;2.43;;;16.20;99.90;;;;;;5052929;28;20311;-66
2022/09/19 11:47:35;;;;;;;4.67;2.27;;;16.10;99.90;;;;;;5049519;28;20281;-68
2022/09/19 11:50:21;;;;;;;7.67;2.30;;;16.20;99.90;;;;;;5060255;28;20207;-67
2022/09/19 11:53:10;;;;;;;4.53;2.80;;;16.20;99.90;;;;;;5053764;28;20193;-68
2022/09/19 11:55:46;;;;;;;4.20;2.47;;;16.10;99.90;;;;;;5052774;28;20623;-66
2022/09/19 11:58:21;;;;;;;8.33;2.53;;;16.10;99.90;;;;;;5053080;28;20196;-67
2022/09/19 12:01:00;;;;;;;4.53;2.10;;;16.10;99.90;;;;;;5053019;28;20205;-68
2022/09/19 12:03:43;;;;;;;7.57;2.33;;;16.20;99.90;;;;;;5053080;28;20285;-67
2022/09/19 12:06:22;;;;;;;4.63;2.50;;;16.20;99.90;;;;;;5052805;28;20604;-69
2022/09/19 12:09:04;;;;;;;5.13;2.27;;;16.30;99.90;;;;;;5052557;28;20361;-68
2022/09/19 12:11:41;;;;;;;5.40;2.23;;;16.30;99.90;;;;;;5052822;28;20297;-67
2022/09/19 12:14:15;;;;;;;6.60;2.37;;;16.30;99.90;;;;;;5052530;28;20496;-67
2022/09/19 12:16:47;;;;;;;3.90;2.17;;;16.40;99.90;;;;;;5052653;28;20202;-68
2022/09/19 12:19:19;;;;;;;7.73;2.20;;;16.40;99.90;;;;;;5051034;28;20229;-66
2022/09/19 12:21:50;;;;;;;4.30;2.03;;;16.40;99.90;;;;;;5052410;28;20278;-68
2022/09/19 12:27:13;;;;;;;4.43;2.00;;;16.60;99.90;;;;;;5052493;28;20186;-66
2022/09/19 12:29:48;;;;;;;4.83;2.07;;;16.60;99.90;;;;;;5051709;28;20227;-68
2022/09/19 12:32:22;;;;;;;6.43;1.93;;;16.60;99.90;;;;;;5052486;28;20214;-67
2022/09/19 12:34:56;;;;;;;5.70;1.87;;;16.70;99.90;;;;;;5051898;28;20187;-67
2022/09/19 12:37:31;;;;;;;3.20;1.93;;;16.80;99.90;;;;;;5052323;28;20599;-68
2022/09/19 12:40:04;;;;;;;5.33;2.00;;;16.80;99.90;;;;;;5051133;28;20353;-69
2022/09/19 12:42:43;;;;;;;4.00;1.90;;;16.80;99.90;;;;;;5049750;28;20291;-69
2022/09/19 12:45:16;;;;;;;5.30;1.90;;;16.80;99.90;;;;;;5051906;28;20752;-67
2022/09/19 12:48:04;;;;;;;4.00;2.10;;;16.80;99.90;;;;;;5049292;28;20296;-68
2022/09/19 12:50:37;;;;;;;4.27;2.00;;;16.90;99.90;;;;;;5046609;28;20295;-68
2022/09/19 12:53:16;;;;;;;4.40;2.03;;;16.90;99.90;;;;;;5051872;28;20552;-68
2022/09/19 12:55:57;;;;;;;3.53;2.10;;;17.00;99.90;;;;;;5052024;28;20224;-67
2022/09/19 12:58:27;;;;;;;4.27;1.70;;;17.00;99.90;;;;;;5050151;28;20550;-67
2022/09/19 13:01:08;;;;;;;6.23;1.80;;;17.00;99.90;;;;;;5048379;28;20223;-67
2022/09/19 13:03:43;;;;;;;2.70;1.73;;;17.00;99.90;;;;;;5051272;28;20719;-67
2022/09/19 13:06:14;;;;;;;3.73;1.60;;;17.00;99.90;;;;;;5049948;28;20544;-68
2022/09/19 13:08:47;;;;;;;2.97;1.90;;;17.10;99.90;;;;;;5041008;28;20201;-67
2022/09/19 13:11:21;;;;;;;5.17;2.10;;;17.10;99.90;;;;;;5049887;28;20201;-67
2022/09/19 13:13:52;;;;;;;4.97;1.83;;;17.10;99.90;;;;;;5050946;28;20200;-67
2022/09/19 13:16:23;;;;;;;4.47;1.80;;;17.10;99.90;;;;;;5051811;28;20687;-67
2022/09/19 13:24:30;;;;;;;3.80;1.80;;;17.10;99.90;;;;;;5051357;28;20247;-67
2022/09/19 13:26:57;;;;;;;4.93;1.90;;;17.10;99.90;;;;;;5050650;28;20283;-69
2022/09/19 13:29:44;;;;;;;4.47;1.87;;;17.00;99.90;;;;;;5051327;28;20736;-69
2022/09/19 13:32:34;;;;;;;3.43;1.70;;;16.90;99.90;;;;;;5051144;28;20204;-68
2022/09/19 13:35:15;;;;;;;3.23;1.97;;;16.90;99.90;;;;;;5051770;28;20193;-67
2022/09/19 13:37:55;;;;;;;8.87;1.90;;;16.90;99.90;;;;;;5055263;28;20191;-68